sensor_id;sensor_type;location;lat;lon;timestamp;temperature;humidity
47805;DHT22;33568;45.286;9.900;2024-01-15T00:00:57;3.30;99.90
47805;DHT22;33568;45.286;9.900;2024-01-15T00:03:23;3.40;99.90
47805;DHT22;33568;45.286;9.900;2024-01-15T00:05:49;3.40;99.90
47805;DHT22;33568;45.286;9.900;2024-01-15T00:08:16;3.50;99.90
47805;DHT22;33568;45.286;9.900;2024-01-15T00:10:42;3.40;99.90
47805;DHT22;33568;45.286;9.900;2024-01-15T00:13:09;3.50;99.90
47805;DHT22;33568;45.286;9.900;2024-01-15T00:15:35;3.50;99.90
47805;DHT22;33568;45.286;9.900;2024-01-15T00:18:02;3.50;99.90
47805;DHT22;33568;45.286;9.900;2024-01-15T00:20:28;3.40;99.90
47805;DHT22;33568;45.286;9.900;2024-01-15T00:22:55;3.40;99.90
47805;DHT22;33568;45.286;9.900;2024-01-15T00:25:21;3.50;99.90
47805;DHT22;33568;45.286;9.900;2024-01-15T00:27:48;3.50;99.90
47805;DHT22;33568;45.286;9.900;2024-01-15T00:30:15;3.40;99.90
47805;DHT22;33568;45.286;9.900;2024-01-15T00:32:41;3.50;99.90
47805;DHT22;33568;45.286;9.900;2024-01-15T00:35:08;3.50;99.90
47805;DHT22;33568;45.286;9.900;2024-01-15T00:37:34;3.50;99.90
47805;DHT22;33568;45.286;9.900;2024-01-15T00:40:01;3.50;99.90
47805;DHT22;33568;45.286;9.900;2024-01-15T00:42:27;3.50;99.90
47805;DHT22;33568;45.286;9.900;2024-01-15T00:44:54;3.60;99.90
47805;DHT22;33568;45.286;9.900;2024-01-15T00:47:20;3.60;99.90
47805;DHT22;33568;45.286;9.900;2024-01-15T00:49:47;3.60;99.90
47805;DHT22;33568;45.286;9.900;2024-01-15T00:52:13;3.50;99.90
47805;DHT22;33568;45.286;9.900;2024-01-15T00:54:39;3.60;99.90
47805;DHT22;33568;45.286;9.900;2024-01-15T00:57:06;3.60;99.90
47805;DHT22;33568;45.286;9.900;2024-01-15T00:59:32;3.70;99.90
47805;DHT22;33568;45.286;9.900;2024-01-15T01:01:59;3.70;99.90
47805;DHT22;33568;45.286;9.900;2024-01-15T01:04:25;3.70;99.90
47805;DHT22;33568;45.286;9.900;2024-01-15T01:06:51;3.70;99.90
47805;DHT22;33568;45.286;9.900;2024-01-15T01:09:18;3.60;99.90
47805;DHT22;33568;45.286;9.900;2024-01-15T01:11:44;3.50;99.90
47805;DHT22;33568;45.286;9.900;2024-01-15T01:14:11;3.40;99.90
47805;DHT22;33568;45.286;9.900;2024-01-15T01:16:38;3.50;99.90
47805;DHT22;33568;45.286;9.900;2024-01-15T01:19:05;3.40;99.90
47805;DHT22;33568;45.286;9.900;2024-01-15T01:21:33;3.50;99.90
47805;DHT22;33568;45.286;9.900;2024-01-15T01:24:00;3.50;99.90
47805;DHT22;33568;45.286;9.900;2024-01-15T01:26:26;3.60;99.90
47805;DHT22;33568;45.286;9.900;2024-01-15T01:28:53;3.60;99.90
47805;DHT22;33568;45.286;9.900;2024-01-15T01:31:19;3.60;99.90
47805;DHT22;33568;45.286;9.900;2024-01-15T01:33:45;3.50;99.90
47805;DHT22;33568;45.286;9.900;2024-01-15T01:36:12;3.60;99.90
47805;DHT22;33568;45.286;9.900;2024-01-15T01:38:40;3.60;99.90
47805;DHT22;33568;45.286;9.900;2024-01-15T01:41:07;3.60;99.90
47805;DHT22;33568;45.286;9.900;2024-01-15T01:43:33;3.60;99.90
47805;DHT22;33568;45.286;9.900;2024-01-15T01:46:00;3.60;99.90
47805;DHT22;33568;45.286;9.900;2024-01-15T01:48:27;3.60;99.90
47805;DHT22;33568;45.286;9.900;2024-01-15T01:50:54;3.70;99.90
47805;DHT22;33568;45.286;9.900;2024-01-15T01:53:22;3.70;99.90
47805;DHT22;33568;45.286;9.900;2024-01-15T01:55:49;3.60;99.90
47805;DHT22;33568;45.286;9.900;2024-01-15T01:58:16;3.70;99.90
47805;DHT22;33568;45.286;9.900;2024-01-15T02:00:43;3.70;99.90
47805;DHT22;33568;45.286;9.900;2024-01-15T02:03:10;3.70;99.90
47805;DHT22;33568;45.286;9.900;2024-01-15T02:05:36;3.80;99.90
47805;DHT22;33568;45.286;9.900;2024-01-15T02:08:03;3.60;99.90
47805;DHT22;33568;45.286;9.900;2024-01-15T02:10:29;3.70;99.90
47805;DHT22;33568;45.286;9.900;2024-01-15T02:12:56;3.70;99.90
47805;DHT22;33568;45.286;9.900;2024-01-15T02:15:22;3.70;99.90
47805;DHT22;33568;45.286;9.900;2024-01-15T02:18:03;3.60;99.90
47805;DHT22;33568;45.286;9.900;2024-01-15T02:20:30;3.60;99.90
47805;DHT22;33568;45.286;9.900;2024-01-15T02:23:13;3.60;99.90
47805;DHT22;33568;45.286;9.900;2024-01-15T02:25:44;3.60;99.90
47805;DHT22;33568;45.286;9.900;2024-01-15T02:28:13;3.60;99.90
47805;DHT22;33568;45.286;9.900;2024-01-15T02:30:41;3.60;99.90
47805;DHT22;33568;45.286;9.900;2024-01-15T02:33:09;3.60;99.90
47805;DHT22;33568;45.286;9.900;2024-01-15T02:35:36;3.60;99.90
47805;DHT22;33568;45.286;9.900;2024-01-15T02:38:03;3.70;99.90
47805;DHT22;33568;45.286;9.900;2024-01-15T02:40:30;3.70;99.90
47805;DHT22;33568;45.286;9.900;2024-01-15T02:42:56;3.70;99.90
47805;DHT22;33568;45.286;9.900;2024-01-15T02:45:23;3.70;99.90
47805;DHT22;33568;45.286;9.900;2024-01-15T02:47:50;3.70;99.90
47805;DHT22;33568;45.286;9.900;2024-01-15T02:50:16;3.70;99.90
47805;DHT22;33568;45.286;9.900;2024-01-15T02:52:43;3.70;99.90
47805;DHT22;33568;45.286;9.900;2024-01-15T02:55:09;3.70;99.90
47805;DHT22;33568;45.286;9.900;2024-01-15T02:57:35;3.70;99.90
47805;DHT22;33568;45.286;9.900;2024-01-15T03:00:02;3.70;99.90
47805;DHT22;33568;45.286;9.900;2024-01-15T03:02:30;3.70;99.90
47805;DHT22;33568;45.286;9.900;2024-01-15T03:04:59;3.70;99.90
47805;DHT22;33568;45.286;9.900;2024-01-15T03:07:25;3.60;99.90
47805;DHT22;33568;45.286;9.900;2024-01-15T03:09:54;3.60;99.90
47805;DHT22;33568;45.286;9.900;2024-01-15T03:12:20;3.60;99.90
47805;DHT22;33568;45.286;9.900;2024-01-15T03:14:47;3.50;99.90
47805;DHT22;33568;45.286;9.900;2024-01-15T03:17:13;3.60;99.90
47805;DHT22;33568;45.286;9.900;2024-01-15T03:19:40;3.60;99.90
47805;DHT22;33568;45.286;9.900;2024-01-15T03:22:06;3.60;99.90
47805;DHT22;33568;45.286;9.900;2024-01-15T03:24:35;3.70;99.90
47805;DHT22;33568;45.286;9.900;2024-01-15T03:27:02;3.70;99.90
47805;DHT22;33568;45.286;9.900;2024-01-15T03:29:28;3.70;99.90
47805;DHT22;33568;45.286;9.900;2024-01-15T03:31:55;3.70;99.90
47805;DHT22;33568;45.286;9.900;2024-01-15T03:34:21;3.70;99.90
47805;DHT22;33568;45.286;9.900;2024-01-15T03:36:48;3.80;99.90
47805;DHT22;33568;45.286;9.900;2024-01-15T03:39:14;3.80;99.90
47805;DHT22;33568;45.286;9.900;2024-01-15T03:41:40;3.80;99.90
47805;DHT22;33568;45.286;9.900;2024-01-15T03:44:07;3.80;99.90
47805;DHT22;33568;45.286;9.900;2024-01-15T03:46:33;3.80;99.90
47805;DHT22;33568;45.286;9.900;2024-01-15T03:49:00;3.80;99.90
47805;DHT22;33568;45.286;9.900;2024-01-15T03:51:26;3.80;99.90
47805;DHT22;33568;45.286;9.900;2024-01-15T03:53:52;3.80;99.90
47805;DHT22;33568;45.286;9.900;2024-01-15T03:56:19;3.80;99.90
47805;DHT22;33568;45.286;9.900;2024-01-15T03:58:45;3.90;99.90
47805;DHT22;33568;45.286;9.900;2024-01-15T04:01:12;3.80;99.90
47805;DHT22;33568;45.286;9.900;2024-01-15T04:03:39;3.80;99.90
47805;DHT22;33568;45.286;9.900;2024-01-15T04:06:05;3.80;99.90
47805;DHT22;33568;45.286;9.900;2024-01-15T04:08:31;3.80;99.90
47805;DHT22;33568;45.286;9.900;2024-01-15T04:10:58;3.80;99.90
47805;DHT22;33568;45.286;9.900;2024-01-15T04:13:25;3.90;99.90
47805;DHT22;33568;45.286;9.900;2024-01-15T04:15:51;3.90;99.90
47805;DHT22;33568;45.286;9.900;2024-01-15T04:18:18;3.80;99.90
47805;DHT22;33568;45.286;9.900;2024-01-15T04:20:44;3.80;99.90
47805;DHT22;33568;45.286;9.900;2024-01-15T04:23:11;3.80;99.90
47805;DHT22;33568;45.286;9.900;2024-01-15T04:25:37;3.80;99.90
47805;DHT22;33568;45.286;9.900;2024-01-15T04:28:04;3.70;99.90
47805;DHT22;33568;45.286;9.900;2024-01-15T04:30:30;3.80;99.90
47805;DHT22;33568;45.286;9.900;2024-01-15T04:32:57;3.80;99.90
47805;DHT22;33568;45.286;9.900;2024-01-15T04:35:23;3.70;99.90
47805;DHT22;33568;45.286;9.900;2024-01-15T04:37:50;3.70;99.90
47805;DHT22;33568;45.286;9.900;2024-01-15T04:40:16;3.70;99.90
47805;DHT22;33568;45.286;9.900;2024-01-15T04:42:43;3.70;99.90
47805;DHT22;33568;45.286;9.900;2024-01-15T04:45:12;3.70;99.90
47805;DHT22;33568;45.286;9.900;2024-01-15T04:47:38;3.70;99.90
47805;DHT22;33568;45.286;9.900;2024-01-15T04:50:05;3.70;99.90
47805;DHT22;33568;45.286;9.900;2024-01-15T04:52:32;3.70;99.90
47805;DHT22;33568;45.286;9.900;2024-01-15T04:54:58;3.70;99.90
47805;DHT22;33568;45.286;9.900;2024-01-15T04:57:24;3.70;99.90
47805;DHT22;33568;45.286;9.900;2024-01-15T04:59:51;3.70;99.90
47805;DHT22;33568;45.286;9.900;2024-01-15T05:02:17;3.80;99.90
47805;DHT22;33568;45.286;9.900;2024-01-15T05:04:44;3.80;99.90
47805;DHT22;33568;45.286;9.900;2024-01-15T05:07:10;3.90;99.90
47805;DHT22;33568;45.286;9.900;2024-01-15T05:09:36;3.90;99.90
47805;DHT22;33568;45.286;9.900;2024-01-15T05:12:03;3.90;99.90
47805;DHT22;33568;45.286;9.900;2024-01-15T05:14:30;3.90;99.90
47805;DHT22;33568;45.286;9.900;2024-01-15T05:16:56;3.90;99.90
47805;DHT22;33568;45.286;9.900;2024-01-15T05:19:22;3.80;99.90
47805;DHT22;33568;45.286;9.900;2024-01-15T05:21:49;3.80;99.90
47805;DHT22;33568;45.286;9.900;2024-01-15T05:24:15;3.90;99.90
47805;DHT22;33568;45.286;9.900;2024-01-15T05:26:41;3.80;99.90
47805;DHT22;33568;45.286;9.900;2024-01-15T05:29:08;3.80;99.90
47805;DHT22;33568;45.286;9.900;2024-01-15T05:31:35;3.90;99.90
47805;DHT22;33568;45.286;9.900;2024-01-15T05:34:02;3.90;99.90
47805;DHT22;33568;45.286;9.900;2024-01-15T05:36:28;3.80;99.90
47805;DHT22;33568;45.286;9.900;2024-01-15T05:38:55;3.90;99.90
47805;DHT22;33568;45.286;9.900;2024-01-15T05:41:21;3.90;99.90
47805;DHT22;33568;45.286;9.900;2024-01-15T05:43:48;3.90;99.90
47805;DHT22;33568;45.286;9.900;2024-01-15T05:46:14;3.90;99.90
47805;DHT22;33568;45.286;9.900;2024-01-15T05:48:41;3.90;99.90
47805;DHT22;33568;45.286;9.900;2024-01-15T05:51:08;4.00;99.90
47805;DHT22;33568;45.286;9.900;2024-01-15T05:53:34;3.90;99.90
47805;DHT22;33568;45.286;9.900;2024-01-15T05:56:00;3.90;99.90
47805;DHT22;33568;45.286;9.900;2024-01-15T05:58:27;4.00;99.90
47805;DHT22;33568;45.286;9.900;2024-01-15T06:00:53;3.90;99.90
47805;DHT22;33568;45.286;9.900;2024-01-15T06:03:20;4.00;99.90
47805;DHT22;33568;45.286;9.900;2024-01-15T06:05:46;4.00;99.90
47805;DHT22;33568;45.286;9.900;2024-01-15T06:08:12;4.00;99.90
47805;DHT22;33568;45.286;9.900;2024-01-15T06:10:40;4.00;99.90
47805;DHT22;33568;45.286;9.900;2024-01-15T06:13:07;4.00;99.90
47805;DHT22;33568;45.286;9.900;2024-01-15T06:15:33;4.10;99.90
47805;DHT22;33568;45.286;9.900;2024-01-15T06:18:00;4.10;99.90
47805;DHT22;33568;45.286;9.900;2024-01-15T06:20:26;4.10;99.90
47805;DHT22;33568;45.286;9.900;2024-01-15T06:22:52;4.10;99.90
47805;DHT22;33568;45.286;9.900;2024-01-15T06:25:19;4.10;99.90
47805;DHT22;33568;45.286;9.900;2024-01-15T06:27:45;4.10;99.90
47805;DHT22;33568;45.286;9.900;2024-01-15T06:30:12;4.10;99.90
47805;DHT22;33568;45.286;9.900;2024-01-15T06:32:38;4.10;99.90
47805;DHT22;33568;45.286;9.900;2024-01-15T06:35:05;4.10;99.90
47805;DHT22;33568;45.286;9.900;2024-01-15T06:37:32;4.10;99.90
47805;DHT22;33568;45.286;9.900;2024-01-15T06:39:59;4.10;99.90
47805;DHT22;33568;45.286;9.900;2024-01-15T06:42:25;4.10;99.90
47805;DHT22;33568;45.286;9.900;2024-01-15T06:44:51;4.10;99.90
47805;DHT22;33568;45.286;9.900;2024-01-15T06:47:18;4.10;99.90
47805;DHT22;33568;45.286;9.900;2024-01-15T06:49:45;4.10;99.90
47805;DHT22;33568;45.286;9.900;2024-01-15T06:52:11;4.10;99.90
47805;DHT22;33568;45.286;9.900;2024-01-15T06:54:38;4.20;99.90
47805;DHT22;33568;45.286;9.900;2024-01-15T06:57:05;4.20;99.90
47805;DHT22;33568;45.286;9.900;2024-01-15T06:59:33;4.30;99.90
47805;DHT22;33568;45.286;9.900;2024-01-15T07:02:01;4.20;99.90
47805;DHT22;33568;45.286;9.900;2024-01-15T07:04:27;4.20;99.90
47805;DHT22;33568;45.286;9.900;2024-01-15T07:06:54;4.20;99.90
47805;DHT22;33568;45.286;9.900;2024-01-15T07:09:20;4.20;99.90
47805;DHT22;33568;45.286;9.900;2024-01-15T07:11:47;4.20;99.90
47805;DHT22;33568;45.286;9.900;2024-01-15T07:14:13;4.20;99.90
47805;DHT22;33568;45.286;9.900;2024-01-15T07:16:40;4.20;99.90
47805;DHT22;33568;45.286;9.900;2024-01-15T07:19:06;4.20;99.90
47805;DHT22;33568;45.286;9.900;2024-01-15T07:21:33;4.20;99.90
47805;DHT22;33568;45.286;9.900;2024-01-15T07:23:59;4.30;99.90
47805;DHT22;33568;45.286;9.900;2024-01-15T07:26:26;4.30;99.90
47805;DHT22;33568;45.286;9.900;2024-01-15T07:28:52;4.20;99.90
47805;DHT22;33568;45.286;9.900;2024-01-15T07:31:19;4.30;99.90
47805;DHT22;33568;45.286;9.900;2024-01-15T07:33:45;4.30;99.90
47805;DHT22;33568;45.286;9.900;2024-01-15T07:36:12;4.30;99.90
47805;DHT22;33568;45.286;9.900;2024-01-15T07:38:38;4.30;99.90
47805;DHT22;33568;45.286;9.900;2024-01-15T07:41:05;4.30;99.90
47805;DHT22;33568;45.286;9.900;2024-01-15T07:43:31;4.30;99.90
47805;DHT22;33568;45.286;9.900;2024-01-15T07:45:58;4.30;99.90
47805;DHT22;33568;45.286;9.900;2024-01-15T07:48:24;4.30;99.90
47805;DHT22;33568;45.286;9.900;2024-01-15T07:50:51;4.40;99.90
47805;DHT22;33568;45.286;9.900;2024-01-15T07:53:17;4.40;99.90
47805;DHT22;33568;45.286;9.900;2024-01-15T07:55:44;4.40;99.90
47805;DHT22;33568;45.286;9.900;2024-01-15T07:58:12;4.30;99.90
47805;DHT22;33568;45.286;9.900;2024-01-15T08:00:38;4.30;99.90
47805;DHT22;33568;45.286;9.900;2024-01-15T08:03:04;4.30;99.90
47805;DHT22;33568;45.286;9.900;2024-01-15T08:05:31;4.20;99.90
47805;DHT22;33568;45.286;9.900;2024-01-15T08:07:58;4.30;99.90
47805;DHT22;33568;45.286;9.900;2024-01-15T08:10:25;4.30;99.90
47805;DHT22;33568;45.286;9.900;2024-01-15T08:12:51;4.30;99.90
47805;DHT22;33568;45.286;9.900;2024-01-15T08:15:17;4.40;99.90
47805;DHT22;33568;45.286;9.900;2024-01-15T08:17:44;4.30;99.90
47805;DHT22;33568;45.286;9.900;2024-01-15T08:20:10;4.40;99.90
47805;DHT22;33568;45.286;9.900;2024-01-15T08:22:38;4.50;99.90
47805;DHT22;33568;45.286;9.900;2024-01-15T08:25:05;4.50;99.90
47805;DHT22;33568;45.286;9.900;2024-01-15T08:27:31;4.60;99.90
47805;DHT22;33568;45.286;9.900;2024-01-15T08:29:58;4.60;99.90
47805;DHT22;33568;45.286;9.900;2024-01-15T08:32:24;4.60;99.90
47805;DHT22;33568;45.286;9.900;2024-01-15T08:34:51;4.60;99.90
47805;DHT22;33568;45.286;9.900;2024-01-15T08:37:18;4.50;99.90
47805;DHT22;33568;45.286;9.900;2024-01-15T08:39:45;4.50;99.90
47805;DHT22;33568;45.286;9.900;2024-01-15T08:42:12;4.60;99.90
47805;DHT22;33568;45.286;9.900;2024-01-15T08:44:38;4.60;99.90
47805;DHT22;33568;45.286;9.900;2024-01-15T08:47:06;4.60;99.90
47805;DHT22;33568;45.286;9.900;2024-01-15T08:49:33;4.60;99.90
47805;DHT22;33568;45.286;9.900;2024-01-15T08:51:59;4.70;99.90
47805;DHT22;33568;45.286;9.900;2024-01-15T08:54:25;4.70;99.90
47805;DHT22;33568;45.286;9.900;2024-01-15T08:56:52;4.70;99.90
47805;DHT22;33568;45.286;9.900;2024-01-15T08:59:18;4.90;99.90
47805;DHT22;33568;45.286;9.900;2024-01-15T09:01:51;5.00;99.90
47805;DHT22;33568;45.286;9.900;2024-01-15T09:04:18;5.20;99.90
47805;DHT22;33568;45.286;9.900;2024-01-15T09:06:47;5.40;99.90
47805;DHT22;33568;45.286;9.900;2024-01-15T09:09:14;5.60;99.90
47805;DHT22;33568;45.286;9.900;2024-01-15T09:11:41;5.80;99.90
47805;DHT22;33568;45.286;9.900;2024-01-15T09:14:08;6.00;99.90
47805;DHT22;33568;45.286;9.900;2024-01-15T09:16:35;6.20;99.90
47805;DHT22;33568;45.286;9.900;2024-01-15T09:19:01;6.30;99.90
47805;DHT22;33568;45.286;9.900;2024-01-15T09:21:28;6.30;99.90
47805;DHT22;33568;45.286;9.900;2024-01-15T09:23:54;6.40;99.90
47805;DHT22;33568;45.286;9.900;2024-01-15T09:26:21;6.60;99.90
47805;DHT22;33568;45.286;9.900;2024-01-15T09:28:47;6.70;99.90
47805;DHT22;33568;45.286;9.900;2024-01-15T09:31:13;6.90;99.90
47805;DHT22;33568;45.286;9.900;2024-01-15T09:33:40;6.90;99.90
47805;DHT22;33568;45.286;9.900;2024-01-15T09:36:06;6.80;99.90
47805;DHT22;33568;45.286;9.900;2024-01-15T09:38:33;6.70;99.90
47805;DHT22;33568;45.286;9.900;2024-01-15T09:40:59;6.70;99.90
47805;DHT22;33568;45.286;9.900;2024-01-15T09:43:26;6.70;99.90
47805;DHT22;33568;45.286;9.900;2024-01-15T09:45:53;6.70;99.90
47805;DHT22;33568;45.286;9.900;2024-01-15T09:48:19;6.60;99.90
47805;DHT22;33568;45.286;9.900;2024-01-15T09:50:46;6.50;99.90
47805;DHT22;33568;45.286;9.900;2024-01-15T09:53:15;6.40;99.90
47805;DHT22;33568;45.286;9.900;2024-01-15T09:55:42;6.40;99.90
47805;DHT22;33568;45.286;9.900;2024-01-15T09:58:08;6.50;99.90
47805;DHT22;33568;45.286;9.900;2024-01-15T10:00:36;6.30;99.90
47805;DHT22;33568;45.286;9.900;2024-01-15T10:03:05;6.20;99.90
47805;DHT22;33568;45.286;9.900;2024-01-15T10:05:32;6.10;99.90
47805;DHT22;33568;45.286;9.900;2024-01-15T10:08:00;6.00;99.90
47805;DHT22;33568;45.286;9.900;2024-01-15T10:10:28;6.00;99.90
47805;DHT22;33568;45.286;9.900;2024-01-15T10:12:55;6.00;99.90
47805;DHT22;33568;45.286;9.900;2024-01-15T10:15:28;6.10;99.90
47805;DHT22;33568;45.286;9.900;2024-01-15T10:17:55;6.30;99.90
47805;DHT22;33568;45.286;9.900;2024-01-15T10:20:21;6.30;99.90
47805;DHT22;33568;45.286;9.900;2024-01-15T10:22:50;6.40;99.90
47805;DHT22;33568;45.286;9.900;2024-01-15T10:25:17;6.40;99.90
47805;DHT22;33568;45.286;9.900;2024-01-15T10:28:03;6.50;99.90
47805;DHT22;33568;45.286;9.900;2024-01-15T10:30:30;7.20;99.90
47805;DHT22;33568;45.286;9.900;2024-01-15T10:32:59;8.10;99.90
47805;DHT22;33568;45.286;9.900;2024-01-15T10:35:33;8.40;99.90
47805;DHT22;33568;45.286;9.900;2024-01-15T10:38:01;8.30;99.90
47805;DHT22;33568;45.286;9.900;2024-01-15T10:40:28;8.20;99.90
47805;DHT22;33568;45.286;9.900;2024-01-15T10:42:55;8.20;99.90
47805;DHT22;33568;45.286;9.900;2024-01-15T10:45:21;8.10;99.90
47805;DHT22;33568;45.286;9.900;2024-01-15T10:47:48;8.00;99.40
47805;DHT22;33568;45.286;9.900;2024-01-15T10:50:15;8.30;99.90
47805;DHT22;33568;45.286;9.900;2024-01-15T10:52:42;9.00;99.90
47805;DHT22;33568;45.286;9.900;2024-01-15T10:55:12;10.20;99.20
47805;DHT22;33568;45.286;9.900;2024-01-15T10:57:38;10.30;97.20
47805;DHT22;33568;45.286;9.900;2024-01-15T11:00:05;10.10;95.70
47805;DHT22;33568;45.286;9.900;2024-01-15T11:02:35;10.10;97.90
47805;DHT22;33568;45.286;9.900;2024-01-15T11:05:02;10.90;97.90
47805;DHT22;33568;45.286;9.900;2024-01-15T11:07:29;12.60;96.00
47805;DHT22;33568;45.286;9.900;2024-01-15T11:09:56;14.10;89.50
47805;DHT22;33568;45.286;9.900;2024-01-15T11:12:24;14.30;92.20
47805;DHT22;33568;45.286;9.900;2024-01-15T11:14:51;14.40;91.80
47805;DHT22;33568;45.286;9.900;2024-01-15T11:17:17;14.80;91.00
47805;DHT22;33568;45.286;9.900;2024-01-15T11:19:48;15.90;82.00
47805;DHT22;33568;45.286;9.900;2024-01-15T11:25:17;18.70;73.10
47805;DHT22;33568;45.286;9.900;2024-01-15T11:27:44;19.70;69.70
47805;DHT22;33568;45.286;9.900;2024-01-15T11:30:14;20.00;64.20
47805;DHT22;33568;45.286;9.900;2024-01-15T11:32:40;19.80;71.70
47805;DHT22;33568;45.286;9.900;2024-01-15T11:35:08;19.90;69.50
47805;DHT22;33568;45.286;9.900;2024-01-15T11:42:59;20.40;61.10
47805;DHT22;33568;45.286;9.900;2024-01-15T11:45:26;21.00;62.90
47805;DHT22;33568;45.286;9.900;2024-01-15T11:48:15;21.10;61.10
47805;DHT22;33568;45.286;9.900;2024-01-15T11:50:50;21.30;56.90
47805;DHT22;33568;45.286;9.900;2024-01-15T11:55:58;22.10;58.00
47805;DHT22;33568;45.286;9.900;2024-01-15T11:58:25;22.60;56.40
47805;DHT22;33568;45.286;9.900;2024-01-15T12:00:52;22.80;55.60
47805;DHT22;33568;45.286;9.900;2024-01-15T12:03:23;23.10;54.60
47805;DHT22;33568;45.286;9.900;2024-01-15T12:05:50;23.50;53.40
47805;DHT22;33568;45.286;9.900;2024-01-15T12:08:22;24.00;52.40
47805;DHT22;33568;45.286;9.900;2024-01-15T12:10:48;24.20;51.00
47805;DHT22;33568;45.286;9.900;2024-01-15T12:13:15;24.10;51.00
47805;DHT22;33568;45.286;9.900;2024-01-15T12:15:44;24.10;47.10
47805;DHT22;33568;45.286;9.900;2024-01-15T12:18:16;24.00;52.00
47805;DHT22;33568;45.286;9.900;2024-01-15T12:20:43;24.00;50.30
47805;DHT22;33568;45.286;9.900;2024-01-15T12:23:10;23.80;50.50
47805;DHT22;33568;45.286;9.900;2024-01-15T12:25:37;23.70;50.00
47805;DHT22;33568;45.286;9.900;2024-01-15T12:28:04;23.50;50.00
47805;DHT22;33568;45.286;9.900;2024-01-15T12:30:31;23.90;49.70
47805;DHT22;33568;45.286;9.900;2024-01-15T12:33:04;22.80;48.90
47805;DHT22;33568;45.286;9.900;2024-01-15T12:35:31;20.10;51.30
47805;DHT22;33568;45.286;9.900;2024-01-15T12:37:59;17.50;54.70
47805;DHT22;33568;45.286;9.900;2024-01-15T12:40:26;15.50;58.00
47805;DHT22;33568;45.286;9.900;2024-01-15T12:42:53;14.20;60.80
47805;DHT22;33568;45.286;9.900;2024-01-15T12:45:19;13.00;62.60
47805;DHT22;33568;45.286;9.900;2024-01-15T12:47:45;12.20;66.00
47805;DHT22;33568;45.286;9.900;2024-01-15T12:50:13;11.70;68.00
47805;DHT22;33568;45.286;9.900;2024-01-15T12:52:42;11.40;69.20
47805;DHT22;33568;45.286;9.900;2024-01-15T12:55:09;11.20;70.50
47805;DHT22;33568;45.286;9.900;2024-01-15T12:57:36;11.00;72.30
47805;DHT22;33568;45.286;9.900;2024-01-15T13:00:04;11.00;73.40
47805;DHT22;33568;45.286;9.900;2024-01-15T13:02:41;10.80;74.30
47805;DHT22;33568;45.286;9.900;2024-01-15T13:05:09;10.70;75.40
47805;DHT22;33568;45.286;9.900;2024-01-15T13:07:37;10.60;76.30
47805;DHT22;33568;45.286;9.900;2024-01-15T13:10:04;10.50;76.90
47805;DHT22;33568;45.286;9.900;2024-01-15T13:12:30;10.40;78.60
47805;DHT22;33568;45.286;9.900;2024-01-15T13:14:58;10.40;78.60
47805;DHT22;33568;45.286;9.900;2024-01-15T13:17:24;10.20;80.30
47805;DHT22;33568;45.286;9.900;2024-01-15T13:19:50;10.20;80.20
47805;DHT22;33568;45.286;9.900;2024-01-15T13:22:17;10.20;80.70
47805;DHT22;33568;45.286;9.900;2024-01-15T13:24:43;10.10;82.10
47805;DHT22;33568;45.286;9.900;2024-01-15T13:27:09;10.10;82.30
47805;DHT22;33568;45.286;9.900;2024-01-15T13:29:36;10.10;82.80
47805;DHT22;33568;45.286;9.900;2024-01-15T13:32:02;9.90;84.40
47805;DHT22;33568;45.286;9.900;2024-01-15T13:34:29;10.00;84.00
47805;DHT22;33568;45.286;9.900;2024-01-15T13:36:56;10.00;84.60
47805;DHT22;33568;45.286;9.900;2024-01-15T13:39:23;9.90;85.00
47805;DHT22;33568;45.286;9.900;2024-01-15T13:41:49;9.90;85.70
47805;DHT22;33568;45.286;9.900;2024-01-15T13:44:16;9.90;86.50
47805;DHT22;33568;45.286;9.900;2024-01-15T13:46:42;9.90;86.80
47805;DHT22;33568;45.286;9.900;2024-01-15T13:49:08;10.00;87.30
47805;DHT22;33568;45.286;9.900;2024-01-15T13:51:38;9.90;88.20
47805;DHT22;33568;45.286;9.900;2024-01-15T13:54:05;9.90;88.20
47805;DHT22;33568;45.286;9.900;2024-01-15T13:56:31;9.90;88.60
47805;DHT22;33568;45.286;9.900;2024-01-15T13:58:59;9.90;88.80
47805;DHT22;33568;45.286;9.900;2024-01-15T14:01:25;9.90;89.00
47805;DHT22;33568;45.286;9.900;2024-01-15T14:03:54;9.90;89.40
47805;DHT22;33568;45.286;9.900;2024-01-15T14:06:20;9.90;89.60
47805;DHT22;33568;45.286;9.900;2024-01-15T14:08:47;9.90;90.00
47805;DHT22;33568;45.286;9.900;2024-01-15T14:11:13;9.80;90.40
47805;DHT22;33568;45.286;9.900;2024-01-15T14:13:39;9.70;90.40
47805;DHT22;33568;45.286;9.900;2024-01-15T14:16:06;9.80;90.50
47805;DHT22;33568;45.286;9.900;2024-01-15T14:18:32;9.80;90.60
47805;DHT22;33568;45.286;9.900;2024-01-15T14:20:59;9.80;90.70
47805;DHT22;33568;45.286;9.900;2024-01-15T14:23:25;9.80;91.00
47805;DHT22;33568;45.286;9.900;2024-01-15T14:25:51;9.80;91.10
47805;DHT22;33568;45.286;9.900;2024-01-15T14:28:18;9.80;91.20
47805;DHT22;33568;45.286;9.900;2024-01-15T14:30:44;9.80;91.30
47805;DHT22;33568;45.286;9.900;2024-01-15T14:33:11;9.80;91.40
47805;DHT22;33568;45.286;9.900;2024-01-15T14:35:37;9.80;91.50
47805;DHT22;33568;45.286;9.900;2024-01-15T14:38:03;9.70;91.70
47805;DHT22;33568;45.286;9.900;2024-01-15T14:40:30;9.60;91.80
47805;DHT22;33568;45.286;9.900;2024-01-15T14:42:56;9.70;92.00
47805;DHT22;33568;45.286;9.900;2024-01-15T14:45:22;9.60;92.00
47805;DHT22;33568;45.286;9.900;2024-01-15T14:47:49;9.70;92.10
47805;DHT22;33568;45.286;9.900;2024-01-15T14:50:15;9.60;92.20
47805;DHT22;33568;45.286;9.900;2024-01-15T14:52:42;9.70;92.30
47805;DHT22;33568;45.286;9.900;2024-01-15T14:55:08;9.60;92.50
47805;DHT22;33568;45.286;9.900;2024-01-15T14:57:37;9.60;92.60
47805;DHT22;33568;45.286;9.900;2024-01-15T15:00:05;9.50;92.80
47805;DHT22;33568;45.286;9.900;2024-01-15T15:02:34;9.50;92.90
47805;DHT22;33568;45.286;9.900;2024-01-15T15:05:04;9.50;93.20
47805;DHT22;33568;45.286;9.900;2024-01-15T15:07:31;9.50;93.40
47805;DHT22;33568;45.286;9.900;2024-01-15T15:09:57;9.40;93.60
47805;DHT22;33568;45.286;9.900;2024-01-15T15:12:23;9.30;93.70
47805;DHT22;33568;45.286;9.900;2024-01-15T15:14:50;9.30;94.00
47805;DHT22;33568;45.286;9.900;2024-01-15T15:17:16;9.20;94.20
47805;DHT22;33568;45.286;9.900;2024-01-15T15:19:43;9.10;94.70
47805;DHT22;33568;45.286;9.900;2024-01-15T15:22:09;9.10;94.60
47805;DHT22;33568;45.286;9.900;2024-01-15T15:24:38;9.10;94.60
47805;DHT22;33568;45.286;9.900;2024-01-15T15:27:05;9.00;94.70
47805;DHT22;33568;45.286;9.900;2024-01-15T15:29:33;9.00;94.90
47805;DHT22;33568;45.286;9.900;2024-01-15T15:32:01;9.00;95.00
47805;DHT22;33568;45.286;9.900;2024-01-15T15:34:28;8.90;95.10
47805;DHT22;33568;45.286;9.900;2024-01-15T15:36:54;8.90;95.20
47805;DHT22;33568;45.286;9.900;2024-01-15T15:39:21;8.80;95.40
47805;DHT22;33568;45.286;9.900;2024-01-15T15:41:47;8.80;95.40
47805;DHT22;33568;45.286;9.900;2024-01-15T15:44:15;8.70;95.70
47805;DHT22;33568;45.286;9.900;2024-01-15T15:46:43;8.70;95.50
47805;DHT22;33568;45.286;9.900;2024-01-15T15:49:10;8.70;95.50
47805;DHT22;33568;45.286;9.900;2024-01-15T15:51:36;8.70;95.50